Time;durP1;ratioP1;P1;durP2;ratioP2;P2;SDS_P1;SDS_P2;PMS_P1;PMS_P2;Temp;Humidity;BMP_temperature;BMP_pressure;BME280_temperature;BME280_humidity;BME280_pressure;Samples;Min_cycle;Max_cycle;Signal;HPM_P1;HPM_P2
2022/04/13 00:00:12;;;;;;;4.97;4.78;;;;;;;12.18;73.22;100709.19;6092640;23;20626;-71
2022/04/13 00:02:39;;;;;;;6.05;5.60;;;;;;;12.08;74.81;100711.53;6059873;23;20035;-70
2022/04/13 00:05:08;;;;;;;4.53;4.32;;;;;;;12.08;74.32;100710.69;6113132;23;20022;-70
2022/04/13 00:07:35;;;;;;;4.63;4.43;;;;;;;11.91;73.93;100686.22;6070172;23;21086;-71
2022/04/13 00:10:03;;;;;;;5.13;4.88;;;;;;;12.03;73.95;100724.09;6098744;23;20045;-71
2022/04/13 00:12:29;;;;;;;4.85;4.65;;;;;;;11.83;74.52;100690.19;6110547;23;20014;-69
2022/04/13 00:14:55;;;;;;;4.65;4.45;;;;;;;11.55;75.01;100650.56;6062884;23;20014;-71
2022/04/13 00:17:22;;;;;;;6.55;6.25;;;;;;;11.95;74.87;100705.28;6090086;23;20045;-71
2022/04/13 00:19:49;;;;;;;4.80;4.50;;;;;;;11.73;74.99;100676.72;6091624;23;20104;-71
2022/04/13 00:22:16;;;;;;;5.97;5.68;;;;;;;11.94;75.07;100708.84;6108610;23;20575;-71
2022/04/13 00:24:42;;;;;;;4.60;4.40;;;;;;;10.52;74.91;100487.41;6087802;23;20028;-71
2022/04/13 00:27:09;;;;;;;5.25;5.03;;;;;;;11.63;75.65;100679.03;6114574;23;20025;-71
2022/04/13 00:29:35;;;;;;;4.70;4.50;;;;;;;11.89;75.49;100724.91;6096256;23;20026;-72
2022/04/13 00:32:03;;;;;;;4.80;4.60;;;;;;;11.73;75.15;100698.59;6127112;23;20092;-71
2022/04/13 00:34:30;;;;;;;4.70;4.50;;;;;;;11.68;75.12;100686.66;6062133;23;20076;-72
2022/04/13 00:36:57;;;;;;;4.70;4.50;;;;;;;11.64;74.97;100685.97;6104721;23;20084;-71
2022/04/13 00:39:24;;;;;;;4.60;4.40;;;;;;;11.68;74.72;100697.16;6126553;23;20020;-71
2022/04/13 00:42:05;;;;;;;4.50;4.30;;;;;;;11.80;75.00;100716.66;6094557;23;20081;-72
2022/04/13 00:44:33;;;;;;;4.82;4.60;;;;;;;11.79;74.43;100723.69;6112106;23;20426;-71
2022/04/13 00:47:05;;;;;;;4.57;4.38;;;;;;;11.79;74.35;100723.69;6094630;23;20039;-70
2022/04/13 00:49:31;;;;;;;4.80;4.60;;;;;;;11.81;74.55;100729.72;6095962;23;20025;-70
2022/04/13 00:51:58;;;;;;;4.63;4.43;;;;;;;11.57;75.05;100688.09;6122773;23;20024;-71
2022/04/13 00:54:28;;;;;;;5.10;4.90;;;;;;;11.74;75.09;100707.31;6083526;23;20021;-72
2022/04/13 00:56:55;;;;;;;4.70;4.50;;;;;;;11.88;75.30;100724.94;6103636;23;20030;-70
2022/04/13 00:59:25;;;;;;;4.65;4.45;;;;;;;11.65;75.34;100699.97;6108791;23;20017;-70
2022/04/13 01:01:56;;;;;;;4.70;4.50;;;;;;;11.51;75.25;100671.84;6107856;23;20100;-71
2022/04/13 01:04:26;;;;;;;5.57;5.38;;;;;;;11.76;75.66;100726.50;6117569;23;20081;-71
2022/04/13 01:06:53;;;;;;;4.50;4.30;;;;;;;11.73;76.24;100722.25;6094756;23;20021;-71
2022/04/13 01:09:25;;;;;;;4.43;4.22;;;;;;;11.75;75.92;100719.56;6111267;23;20483;-71
2022/04/13 01:11:52;;;;;;;4.68;4.47;;;;;;;11.82;75.61;100722.66;6081294;23;20014;-71
2022/04/13 01:14:18;;;;;;;6.07;5.78;;;;;;;11.90;75.50;100738.88;6103236;23;20077;-70
2022/04/13 01:16:45;;;;;;;4.30;4.10;;;;;;;11.92;75.54;100731.75;6078558;23;20033;-70
2022/04/13 01:19:14;;;;;;;5.80;5.57;;;;;;;11.77;74.74;100696.66;6131911;23;20041;-71
2022/04/13 01:21:47;;;;;;;4.50;4.30;;;;;;;12.01;74.11;100730.38;6084660;23;20019;-71
2022/04/13 01:24:16;;;;;;;6.55;6.25;;;;;;;12.08;73.10;100743.09;6082176;23;20097;-70
2022/04/13 01:26:43;;;;;;;4.70;4.50;;;;;;;12.02;73.15;100732.91;6087078;23;20119;-70
2022/04/13 01:29:09;;;;;;;5.60;5.30;;;;;;;12.10;73.38;100751.72;6085361;23;20018;-70
2022/04/13 01:31:36;;;;;;;4.40;4.20;;;;;;;11.98;73.05;100731.41;6089852;23;20419;-71
2022/04/13 01:34:02;;;;;;;4.60;4.40;;;;;;;11.21;72.18;100609.56;6088217;23;20018;-70
2022/04/13 01:36:29;;;;;;;4.55;4.35;;;;;;;12.00;72.96;100753.19;6089670;23;20021;-71
2022/04/13 01:38:55;;;;;;;4.55;4.35;;;;;;;11.87;73.28;100744.31;6087184;23;20030;-71
2022/04/13 01:41:22;;;;;;;6.60;6.30;;;;;;;11.91;73.95;100751.97;6092961;23;20620;-71
2022/04/13 01:43:49;;;;;;;4.60;4.40;;;;;;;11.54;74.16;100711.06;6081410;23;20085;-71
2022/04/13 01:46:15;;;;;;;6.15;5.85;;;;;;;11.61;74.45;100738.72;6095400;23;20022;-70
2022/04/13 01:48:42;;;;;;;4.40;4.20;;;;;;;11.55;74.78;100742.53;6094925;23;20030;-70
2022/04/13 01:51:09;;;;;;;4.70;4.50;;;;;;;11.54;75.28;100764.47;6078755;23;20395;-70
2022/04/13 01:53:35;;;;;;;4.40;4.20;;;;;;;10.33;75.52;100574.97;6086440;23;20015;-71
2022/04/13 01:56:01;;;;;;;4.60;4.40;;;;;;;10.41;76.32;100598.19;6085767;23;20032;-71
2022/04/13 01:58:28;;;;;;;4.53;4.32;;;;;;;11.32;77.06;100775.31;6081319;23;20873;-71
2022/04/13 02:00:55;;;;;;;4.50;4.30;;;;;;;11.27;77.61;100781.78;6087503;23;20411;-71
2022/04/13 02:03:21;;;;;;;6.32;6.03;;;;;;;10.82;77.28;100712.38;6078758;23;20474;-71
2022/04/13 02:05:48;;;;;;;4.57;4.38;;;;;;;10.94;77.76;100738.84;6072340;23;20605;-70
2022/04/13 02:08:15;;;;;;;5.85;5.55;;;;;;;10.94;78.54;100758.97;6070836;23;20026;-71
2022/04/13 02:10:41;;;;;;;4.80;4.60;;;;;;;10.87;77.92;100736.63;6081780;23;20408;-71
2022/04/13 02:13:08;;;;;;;4.80;4.60;;;;;;;11.08;78.21;100780.09;6085380;23;20089;-70
2022/04/13 02:15:34;;;;;;;4.20;4.00;;;;;;;10.62;78.87;100723.91;6075889;23;20029;-71
2022/04/13 02:18:01;;;;;;;4.53;4.32;;;;;;;10.93;78.92;100788.81;6090340;23;20049;-72
2022/04/13 02:20:27;;;;;;;4.70;4.50;;;;;;;10.86;80.01;100798.75;6093150;23;20045;-71
2022/04/13 02:22:53;;;;;;;4.60;4.40;;;;;;;10.78;81.20;100799.19;6092752;23;20089;-71
2022/04/13 02:25:20;;;;;;;5.95;5.65;;;;;;;10.55;81.08;100774.09;6090636;23;20027;-71
2022/04/13 02:27:46;;;;;;;4.45;4.25;;;;;;;10.24;82.19;100742.44;6098158;23;20010;-71
2022/04/13 02:30:13;;;;;;;6.30;6.00;;;;;;;10.36;82.59;100782.06;6074969;23;20083;-71
2022/04/13 02:32:43;;;;;;;4.60;4.40;;;;;;;10.34;83.69;100781.28;6085822;23;20033;-71
2022/04/13 02:35:11;;;;;;;5.57;5.32;;;;;;;10.18;83.52;100770.69;6083178;23;20017;-71
2022/04/13 02:37:38;;;;;;;4.80;4.60;;;;;;;10.38;83.94;100808.19;6080611;23;20026;-70
2022/04/13 02:40:06;;;;;;;4.80;4.60;;;;;;;10.32;84.91;100798.00;6087183;23;20021;-70
2022/04/13 02:42:33;;;;;;;4.65;4.45;;;;;;;10.23;84.21;100787.97;6085047;23;20762;-70
2022/04/13 02:45:01;;;;;;;4.57;4.38;;;;;;;10.25;83.82;100784.34;6080678;23;20347;-70
2022/04/13 02:47:27;;;;;;;5.15;4.85;;;;;;;10.21;83.33;100764.44;6074659;23;20079;-71
2022/04/13 02:49:55;;;;;;;4.40;4.20;;;;;;;10.24;83.27;100779.16;6107542;23;20028;-71
2022/04/13 02:52:23;;;;;;;6.15;5.85;;;;;;;10.25;83.43;100789.56;6079820;23;20561;-71
2022/04/13 02:54:49;;;;;;;4.35;4.15;;;;;;;10.30;83.73;100815.59;6096074;23;20630;-71
2022/04/13 02:57:16;;;;;;;5.82;5.57;;;;;;;10.17;83.99;100794.34;6087629;23;20604;-71
2022/04/13 02:59:46;;;;;;;4.50;4.30;;;;;;;10.25;83.55;100807.94;6078499;23;20328;-71
2022/04/13 03:02:15;;;;;;;6.05;5.75;;;;;;;10.21;83.09;100813.41;6087644;23;20022;-71
2022/04/13 03:04:43;;;;;;;4.75;4.55;;;;;;;10.11;83.40;100798.13;6077848;23;20029;-71
2022/04/13 03:07:11;;;;;;;5.25;5.05;;;;;;;10.32;83.21;100830.38;6077493;23;20018;-70
2022/04/13 03:09:39;;;;;;;4.43;4.22;;;;;;;10.23;83.07;100806.31;6072585;23;20021;-71
2022/04/13 03:12:07;;;;;;;4.68;4.40;;;;;;;10.15;81.99;100791.78;6082396;23;20021;-70
2022/04/13 03:14:35;;;;;;;4.40;4.20;;;;;;;10.00;81.57;100758.44;6068018;23;20037;-71
2022/04/13 03:17:01;;;;;;;4.70;4.50;;;;;;;10.43;82.13;100826.34;6073440;23;20018;-71
2022/04/13 03:19:28;;;;;;;4.95;4.75;;;;;;;10.45;82.32;100824.50;6088188;23;20018;-70
2022/04/13 03:21:54;;;;;;;4.40;4.20;;;;;;;10.48;82.36;100826.97;6111401;23;20024;-71
2022/04/13 03:24:25;;;;;;;6.65;6.35;;;;;;;10.49;81.85;100831.31;6089528;23;20499;-71
2022/04/13 03:26:51;;;;;;;4.50;4.30;;;;;;;10.50;81.64;100830.34;6109116;23;20041;-70
2022/04/13 03:29:18;;;;;;;5.72;5.50;;;;;;;10.56;81.46;100828.31;6089476;23;20142;-73
2022/04/13 03:31:45;;;;;;;4.70;4.50;;;;;;;10.58;81.21;100841.31;6087903;23;20101;-75
2022/04/13 03:34:12;;;;;;;4.80;4.57;;;;;;;10.62;80.98;100852.53;6085954;23;20084;-73
2022/04/13 03:36:41;;;;;;;4.43;4.22;;;;;;;10.48;80.72;100819.94;6092828;23;20033;-74
2022/04/13 03:39:08;;;;;;;4.70;4.50;;;;;;;10.66;80.51;100852.28;6096049;23;20092;-75
2022/04/13 03:41:35;;;;;;;4.93;4.70;;;;;;;10.66;80.95;100849.66;6087907;23;20018;-74
2022/04/13 03:44:03;;;;;;;4.75;4.55;;;;;;;10.55;81.01;100842.31;6093922;23;20029;-73
2022/04/13 03:46:31;;;;;;;4.50;4.30;;;;;;;10.56;81.03;100843.16;6086499;23;20443;-73
2022/04/13 03:48:58;;;;;;;4.43;4.22;;;;;;;10.57;82.27;100850.97;6088442;23;20087;-73
2022/04/13 03:51:25;;;;;;;5.80;5.57;;;;;;;10.53;82.06;100859.09;6073056;23;20092;-75
2022/04/13 03:53:52;;;;;;;4.45;4.25;;;;;;;10.48;82.34;100861.06;6086996;23;20071;-73
2022/04/13 03:56:18;;;;;;;6.35;6.05;;;;;;;10.40;82.04;100856.19;6092442;23;20028;-73
2022/04/13 03:58:45;;;;;;;4.93;4.72;;;;;;;10.18;82.39;100823.13;6088773;23;20018;-75
2022/04/13 04:01:11;;;;;;;5.38;5.10;;;;;;;10.44;82.95;100873.47;6095380;23;20030;-73
2022/04/13 04:03:38;;;;;;;4.70;4.50;;;;;;;9.98;83.30;100802.25;6087583;23;20025;-75
2022/04/13 04:06:04;;;;;;;4.53;4.32;;;;;;;8.13;84.05;100507.13;6079503;23;20360;-74
2022/04/13 04:08:35;;;;;;;4.32;4.13;;;;;;;9.84;83.99;100784.56;6089716;23;20269;-73
2022/04/13 04:11:02;;;;;;;4.70;4.50;;;;;;;10.23;84.40;100851.75;6051458;23;20021;-72
2022/04/13 04:13:28;;;;;;;4.93;4.72;;;;;;;10.40;83.93;100873.72;6081602;23;20103;-74
2022/04/13 04:15:55;;;;;;;4.43;4.22;;;;;;;10.34;83.93;100875.72;6073618;23;20285;-73
2022/04/13 04:18:22;;;;;;;6.10;5.80;;;;;;;10.11;86.34;100844.47;6068246;23;20002;-74
2022/04/13 04:20:48;;;;;;;4.38;4.18;;;;;;;9.97;85.31;100838.09;6090516;23;20018;-74
2022/04/13 04:23:15;;;;;;;6.38;6.07;;;;;;;10.19;86.18;100869.41;6112219;23;20012;-75
2022/04/13 04:25:41;;;;;;;4.45;4.25;;;;;;;9.98;87.39;100852.06;6093177;23;20013;-75
2022/04/13 04:28:11;;;;;;;4.53;4.32;;;;;;;10.15;86.97;100878.34;6107559;23;20006;-73
2022/04/13 04:30:38;;;;;;;4.30;4.10;;;;;;;9.90;87.47;100835.84;6106960;23;20029;-74
2022/04/13 04:33:09;;;;;;;4.70;4.50;;;;;;;10.05;87.61;100868.38;6095587;23;20028;-74
2022/04/13 04:35:36;;;;;;;4.20;4.00;;;;;;;10.13;87.01;100884.59;6096964;23;20087;-74
2022/04/13 04:38:03;;;;;;;4.55;4.35;;;;;;;9.97;87.05;100853.00;6102677;23;20025;-71
2022/04/13 04:40:29;;;;;;;4.68;4.47;;;;;;;10.18;86.88;100883.44;6076638;23;20019;-71
2022/04/13 04:42:58;;;;;;;4.30;4.10;;;;;;;9.99;86.60;100859.84;6082136;23;20052;-70
2022/04/13 04:45:25;;;;;;;5.72;5.53;;;;;;;9.82;86.76;100819.63;6088057;23;20580;-71
2022/04/13 04:47:53;;;;;;;4.35;4.15;;;;;;;10.12;86.31;100869.75;6103715;23;20021;-69
2022/04/13 04:50:21;;;;;;;5.88;5.57;;;;;;;10.19;86.38;100890.38;6100920;23;20022;-71
2022/04/13 04:52:48;;;;;;;4.50;4.30;;;;;;;10.08;86.33;100866.47;6083747;23;20081;-71
2022/04/13 04:55:17;;;;;;;6.20;5.90;;;;;;;10.30;86.25;100889.06;6080328;23;20509;-70
2022/04/13 04:57:44;;;;;;;4.50;4.30;;;;;;;10.37;85.62;100893.09;6085829;23;20022;-70
2022/04/13 05:00:14;;;;;;;6.40;6.10;;;;;;;10.21;85.40;100852.75;6065399;23;20022;-71
2022/04/13 05:02:40;;;;;;;4.28;4.07;;;;;;;10.53;84.54;100898.44;6092081;23;20120;-72
2022/04/13 05:05:07;;;;;;;4.30;4.10;;;;;;;10.60;84.49;100893.75;6093382;23;20622;-69
2022/04/13 05:07:33;;;;;;;4.70;4.50;;;;;;;10.47;83.84;100875.97;6069689;23;20016;-73
2022/04/13 05:10:00;;;;;;;5.00;4.70;;;;;;;10.37;84.00;100854.59;6076911;23;20030;-72
2022/04/13 05:12:27;;;;;;;7.18;5.05;;;;;;;10.68;84.01;100900.28;6074806;23;20062;-73
2022/04/13 05:14:55;;;;;;;5.85;5.50;;;;;;;10.77;83.90;100915.59;6075376;23;20014;-73
2022/04/13 05:17:23;;;;;;;7.00;6.55;;;;;;;10.74;83.56;100899.16;6076044;23;20048;-70
2022/04/13 05:19:49;;;;;;;4.47;4.28;;;;;;;10.69;82.88;100886.25;6086676;23;20025;-71
2022/04/13 05:22:16;;;;;;;6.53;6.22;;;;;;;10.91;83.34;100919.34;6070367;23;20033;-72
2022/04/13 05:24:43;;;;;;;4.32;4.13;;;;;;;9.87;83.12;100725.91;6086375;23;20081;-69
2022/04/13 05:27:10;;;;;;;5.63;5.38;;;;;;;11.09;82.91;100923.66;6079144;23;20013;-70
2022/04/13 05:29:36;;;;;;;4.60;4.40;;;;;;;11.23;82.18;100928.19;6075449;23;20757;-70
2022/04/13 05:32:03;;;;;;;5.40;5.20;;;;;;;11.14;81.86;100891.88;6083035;23;20062;-70
2022/04/13 05:34:31;;;;;;;5.20;4.90;;;;;;;11.28;81.41;100899.91;6083954;23;21287;-70
2022/04/13 05:36:58;;;;;;;5.10;4.85;;;;;;;11.47;80.53;100912.94;6075364;23;20115;-70
2022/04/13 05:39:25;;;;;;;5.88;4.97;;;;;;;11.80;80.19;100937.53;6065204;23;20056;-70
2022/04/13 05:41:51;;;;;;;4.82;4.63;;;;;;;11.71;79.28;100904.69;6089825;23;20092;-71
2022/04/13 05:44:18;;;;;;;6.65;6.35;;;;;;;11.85;79.05;100944.25;6077709;23;20655;-70
2022/04/13 05:46:44;;;;;;;4.70;4.50;;;;;;;11.90;79.01;100934.34;6084348;23;20058;-70
2022/04/13 05:49:11;;;;;;;5.00;4.80;;;;;;;11.93;78.10;100971.00;6087675;23;20022;-72
2022/04/13 05:51:37;;;;;;;4.72;4.53;;;;;;;11.94;78.87;100963.97;6062604;23;20033;-72
2022/04/13 05:54:04;;;;;;;4.60;4.40;;;;;;;11.69;80.62;100961.75;6059466;23;20093;-74
2022/04/13 05:56:30;;;;;;;4.70;4.50;;;;;;;11.45;81.16;100959.47;6077152;23;20106;-72
2022/04/13 05:58:57;;;;;;;6.13;5.55;;;;;;;11.36;80.65;100924.00;6081378;23;20010;-72
2022/04/13 06:01:23;;;;;;;6.22;5.93;;;;;;;11.65;79.90;100929.53;6062043;23;20525;-72
2022/04/13 06:03:49;;;;;;;4.80;4.60;;;;;;;12.08;79.00;100968.47;6076676;23;20013;-75
2022/04/13 06:06:16;;;;;;;6.28;5.97;;;;;;;12.24;79.04;100979.84;6085733;23;20033;-74
2022/04/13 06:08:42;;;;;;;5.00;4.70;;;;;;;12.39;78.35;100978.19;6053511;23;20021;-74
2022/04/13 06:11:09;;;;;;;5.03;4.82;;;;;;;12.29;78.23;100946.25;6082565;23;20042;-73
2022/04/13 06:13:36;;;;;;;4.75;4.55;;;;;;;12.54;77.77;100984.38;6079202;23;20096;-72
2022/04/13 06:16:02;;;;;;;4.50;4.30;;;;;;;11.67;77.57;100829.56;6094040;23;20043;-73
2022/04/13 06:18:29;;;;;;;5.07;4.85;;;;;;;12.70;77.46;100981.72;6089883;23;20094;-74
2022/04/13 06:20:56;;;;;;;4.78;4.57;;;;;;;12.65;78.78;100989.91;6084095;23;20033;-73
2022/04/13 06:23:22;;;;;;;6.47;6.18;;;;;;;12.40;78.66;100953.56;6095707;23;20014;-73
2022/04/13 06:25:49;;;;;;;4.68;4.47;;;;;;;12.84;78.49;101005.50;6075228;23;20020;-75
2022/04/13 06:28:15;;;;;;;6.15;5.85;;;;;;;12.83;78.19;100990.66;6117302;23;20076;-73
2022/04/13 06:30:43;;;;;;;4.70;4.50;;;;;;;12.93;77.99;100999.72;6081125;23;20339;-73
2022/04/13 06:33:10;;;;;;;6.22;5.95;;;;;;;13.17;78.25;101009.78;6088779;23;20545;-74
2022/04/13 06:35:36;;;;;;;4.70;4.50;;;;;;;13.28;76.93;100990.69;6114797;23;20243;-73
2022/04/13 06:38:03;;;;;;;6.00;5.65;;;;;;;13.56;76.92;101003.97;6087640;23;20017;-75
2022/04/13 06:40:29;;;;;;;4.72;4.53;;;;;;;13.68;76.66;101005.00;6082469;23;20022;-72
2022/04/13 06:42:56;;;;;;;4.80;4.60;;;;;;;13.80;75.61;101008.69;6112321;23;20104;-72
2022/04/13 06:45:23;;;;;;;6.25;5.95;;;;;;;14.08;74.31;101007.00;6084486;23;20105;-73
2022/04/13 06:47:50;;;;;;;4.97;4.78;;;;;;;13.59;74.02;100888.69;6108039;23;20455;-72
2022/04/13 06:50:16;;;;;;;6.65;6.35;;;;;;;14.47;73.47;101016.88;6083028;23;20134;-72
2022/04/13 06:52:44;;;;;;;5.45;5.15;;;;;;;14.68;73.31;101014.69;6116703;23;20037;-72
2022/04/13 06:55:10;;;;;;;6.10;5.82;;;;;;;14.60;71.40;101001.13;6090599;23;20126;-71
2022/04/13 06:57:38;;;;;;;5.18;4.88;;;;;;;14.62;68.16;101008.94;6095341;23;20010;-72
2022/04/13 07:00:06;;;;;;;5.15;4.95;;;;;;;14.66;68.42;101019.22;6108483;23;20037;-73
2022/04/13 07:02:34;;;;;;;5.10;4.80;;;;;;;14.38;69.40;100983.13;6092350;23;20020;-70
2022/04/13 07:05:21;;;;;;;6.85;6.50;;;;;;;14.49;68.55;100998.28;6102387;23;20033;-70
2022/04/13 07:07:47;;;;;;;4.80;4.60;;;;;;;14.46;68.58;100983.47;6087011;23;20100;-70
2022/04/13 07:10:14;;;;;;;7.28;6.88;;;;;;;15.03;67.84;101019.44;6108313;23;20025;-72
2022/04/13 07:12:41;;;;;;;5.00;4.80;;;;;;;14.49;68.54;100956.03;6061799;23;20025;-71
2022/04/13 07:15:08;;;;;;;5.45;5.22;;;;;;;15.01;68.46;101013.41;6112840;23;20033;-71
2022/04/13 07:17:35;;;;;;;4.95;4.75;;;;;;;14.97;68.44;101027.78;6090365;23;20016;-72
2022/04/13 07:20:02;;;;;;;5.15;4.95;;;;;;;15.09;69.04;101026.97;6104975;23;20052;-71
2022/04/13 07:22:29;;;;;;;5.70;5.40;;;;;;;14.83;69.83;100998.78;6098661;23;20033;-72
2022/04/13 07:24:55;;;;;;;5.00;4.80;;;;;;;14.86;70.37;100998.59;6118005;23;20021;-72
2022/04/13 07:27:22;;;;;;;6.75;6.45;;;;;;;15.02;70.93;101023.06;6117063;23;20013;-71
2022/04/13 07:29:48;;;;;;;5.60;5.30;;;;;;;14.82;71.23;100997.94;6110277;23;20604;-72
2022/04/13 07:32:14;;;;;;;5.35;5.15;;;;;;;15.32;70.49;101035.19;6103270;23;20017;-69
2022/04/13 07:34:41;;;;;;;5.22;5.03;;;;;;;15.31;69.43;101044.06;6100513;23;20018;-70
2022/04/13 07:37:07;;;;;;;5.18;4.97;;;;;;;15.18;67.92;101011.47;6104451;23;20052;-69
2022/04/13 07:39:34;;;;;;;5.78;5.47;;;;;;;15.30;68.81;101042.38;6100745;23;20013;-68
2022/04/13 07:42:00;;;;;;;5.45;5.20;;;;;;;15.42;67.98;101057.44;6111044;23;20045;-68
2022/04/13 07:44:27;;;;;;;5.82;5.43;;;;;;;15.69;68.27;101053.88;6105453;23;20009;-69
2022/04/13 07:47:16;;;;;;;5.88;5.63;;;;;;;15.37;68.06;101033.06;6104684;23;20108;-73
2022/04/13 07:49:43;;;;;;;4.80;4.60;;;;;;;15.53;67.67;101057.53;6087459;23;20029;-70
2022/04/13 07:52:10;;;;;;;5.28;5.05;;;;;;;15.66;67.58;101068.16;6109252;23;20026;-66
2022/04/13 07:54:36;;;;;;;5.10;4.90;;;;;;;15.93;67.99;101068.09;6093362;23;20018;-67
2022/04/13 07:57:07;;;;;;;5.35;5.13;;;;;;;16.18;66.49;101061.13;6109714;23;20021;-70
2022/04/13 07:59:34;;;;;;;6.35;6.03;;;;;;;15.96;67.19;101053.81;6108928;23;20014;-72
2022/04/13 08:02:01;;;;;;;5.40;5.10;;;;;;;15.42;66.98;100980.72;6112100;23;20028;-77
2022/04/13 08:04:28;;;;;;;5.85;5.40;;;;;;;15.88;68.14;101077.31;6096689;23;20042;-76
2022/04/13 08:06:55;;;;;;;5.13;4.93;;;;;;;15.12;66.54;100942.19;6102130;23;20013;-73
2022/04/13 08:09:23;;;;;;;6.97;6.60;;;;;;;16.07;67.26;101068.94;6097817;23;20052;-71
2022/04/13 08:11:52;;;;;;;5.82;5.53;;;;;;;16.50;66.71;101095.09;6099903;23;20020;-72
2022/04/13 08:14:20;;;;;;;6.78;6.47;;;;;;;16.46;65.47;101090.97;6084656;23;20100;-72
2022/04/13 08:16:46;;;;;;;5.43;5.20;;;;;;;16.25;66.20;101062.38;6102690;23;20664;-74
2022/04/13 08:19:13;;;;;;;6.15;5.85;;;;;;;15.92;67.17;101070.88;6101825;23;20096;-76
2022/04/13 08:21:39;;;;;;;5.68;5.38;;;;;;;16.00;66.87;100986.47;6112823;23;20572;-77
2022/04/13 08:24:06;;;;;;;5.57;5.22;;;;;;;15.55;64.87;100933.13;6114575;23;20017;-77
2022/04/13 08:26:33;;;;;;;5.15;4.95;;;;;;;16.46;64.11;101052.06;6104903;23;20009;-75
2022/04/13 08:28:59;;;;;;;5.40;5.10;;;;;;;16.64;63.26;101097.59;6121503;23;20017;-74
2022/04/13 08:31:26;;;;;;;5.55;5.28;;;;;;;16.47;64.82;101103.25;6115237;23;20084;-72
2022/04/13 08:33:52;;;;;;;5.40;5.20;;;;;;;16.28;64.46;101051.56;6091058;23;20025;-73
2022/04/13 08:36:19;;;;;;;7.47;7.07;;;;;;;15.89;64.52;100944.84;6112067;23;20041;-73
2022/04/13 08:38:45;;;;;;;5.95;5.65;;;;;;;16.87;63.27;101077.41;6109603;23;20021;-74
2022/04/13 08:41:18;;;;;;;6.78;6.40;;;;;;;17.24;61.73;101090.63;6072552;23;20033;-74
2022/04/13 08:43:56;;;;;;;6.80;6.32;;;;;;;17.08;62.79;101106.81;6107736;23;20017;-74
2022/04/13 08:46:25;;;;;;;7.78;7.30;;;;;;;17.23;62.55;101077.47;6079632;23;20096;-73
2022/04/13 08:48:57;;;;;;;6.07;5.68;;;;;;;17.80;62.91;101102.38;6106289;23;20048;-73
2022/04/13 08:51:45;;;;;;;5.95;5.65;;;;;;;17.91;61.33;101102.47;6112040;23;20383;-75
2022/04/13 08:54:28;;;;;;;6.72;6.22;;;;;;;18.06;60.18;101079.16;6113727;23;20057;-75
2022/04/13 08:56:57;;;;;;;6.50;6.10;;;;;;;18.04;58.02;101081.97;6109914;23;20096;-77
2022/04/13 09:00:05;;;;;;;6.10;5.80;;;;;;;18.01;59.83;101108.75;6090806;23;20007;-75
2022/04/13 09:02:47;;;;;;;5.60;5.30;;;;;;;18.18;58.23;101099.50;6083314;23;20010;-76
2022/04/13 09:05:20;;;;;;;6.28;5.78;;;;;;;18.23;58.11;101067.25;6099221;23;20120;-75
2022/04/13 09:07:53;;;;;;;5.75;5.45;;;;;;;19.29;56.99;101110.09;6109403;23;20013;-76
2022/04/13 09:10:21;;;;;;;8.00;7.50;;;;;;;19.97;55.29;101107.16;6079270;23;20076;-76
2022/04/13 09:12:51;;;;;;;6.03;5.63;;;;;;;20.23;53.82;101104.91;6106208;23;20017;-75
2022/04/13 09:15:17;;;;;;;7.15;6.70;;;;;;;20.26;51.30;101111.78;6111355;23;20033;-76
2022/04/13 09:17:44;;;;;;;5.57;5.35;;;;;;;19.84;51.79;101085.19;6104591;23;20029;-75
2022/04/13 09:20:11;;;;;;;6.88;6.47;;;;;;;20.20;51.04;101073.16;6112981;23;20021;-75
2022/04/13 09:22:39;;;;;;;6.25;5.90;;;;;;;20.66;51.57;101117.16;6095663;23;20024;-74
2022/04/13 09:25:07;;;;;;;5.90;5.60;;;;;;;20.68;50.17;101117.03;6100731;23;20016;-75
2022/04/13 09:27:36;;;;;;;7.00;6.40;;;;;;;20.29;51.42;101112.34;6109401;23;20033;-76
2022/04/13 09:30:03;;;;;;;7.15;6.75;;;;;;;19.98;52.19;101094.66;6108341;23;20080;-76
2022/04/13 09:32:30;;;;;;;6.03;5.72;;;;;;;19.96;51.19;101109.94;6089270;23;20014;-75
2022/04/13 09:34:56;;;;;;;5.80;5.50;;;;;;;20.00;52.27;101098.88;6115304;23;20032;-75
2022/04/13 09:37:24;;;;;;;7.40;6.85;;;;;;;19.97;52.69;101127.63;6098707;23;20025;-75
2022/04/13 09:39:51;;;;;;;6.13;5.82;;;;;;;19.71;51.98;101130.66;6106058;23;20029;-78
2022/04/13 09:42:18;;;;;;;6.95;6.65;;;;;;;18.20;55.27;101012.56;6105742;23;20032;-77
2022/04/13 09:44:54;;;;;;;6.30;5.90;;;;;;;18.79;55.85;101127.50;6102025;23;20021;-77
2022/04/13 09:47:20;;;;;;;7.35;6.95;;;;;;;19.13;56.16;101115.84;6102535;23;20520;-76
2022/04/13 09:49:55;;;;;;;5.68;5.38;;;;;;;18.76;57.39;101104.63;6105944;23;20032;-77
2022/04/13 09:52:41;;;;;;;8.02;7.57;;;;;;;17.64;58.63;100973.53;6101956;23;20096;-76
2022/04/13 09:55:09;;;;;;;5.97;5.68;;;;;;;18.78;56.29;101123.13;6101845;23;20049;-75
2022/04/13 09:57:35;;;;;;;5.90;5.60;;;;;;;19.10;56.94;101133.88;6114928;23;20015;-76
2022/04/13 10:00:08;;;;;;;6.18;5.78;;;;;;;18.89;56.82;101131.97;6115882;23;20152;-77
2022/04/13 10:02:37;;;;;;;6.45;5.38;;;;;;;19.19;55.70;101121.66;6113076;23;20020;-76
2022/04/13 10:05:06;;;;;;;5.68;5.38;;;;;;;19.79;54.62;101133.53;6116102;23;20025;-76
2022/04/13 10:07:34;;;;;;;6.30;5.63;;;;;;;19.52;53.83;101102.88;6114258;23;20461;-76
2022/04/13 10:10:02;;;;;;;8.57;5.90;;;;;;;19.71;53.68;101138.66;6110721;23;20014;-76
2022/04/13 10:12:45;;;;;;;6.05;5.75;;;;;;;17.87;56.49;100936.38;6095540;23;20032;-76
2022/04/13 10:15:12;;;;;;;6.40;5.88;;;;;;;18.40;56.05;100980.84;6109775;23;20052;-77
2022/04/13 10:17:39;;;;;;;6.18;5.80;;;;;;;19.64;55.65;101137.44;6123405;23;20015;-76
2022/04/13 10:20:06;;;;;;;6.05;5.70;;;;;;;19.21;54.59;101061.16;6130432;23;20092;-77
2022/04/13 10:22:32;;;;;;;6.47;6.07;;;;;;;20.19;53.30;101145.28;6109328;23;20096;-77
2022/04/13 10:25:25;;;;;;;6.38;6.05;;;;;;;20.29;50.87;101144.34;6110160;23;20018;-77
2022/04/13 10:27:59;;;;;;;5.60;5.30;;;;;;;19.85;53.15;101142.81;6114978;23;20033;-76
2022/04/13 10:30:34;;;;;;;7.22;6.82;;;;;;;20.59;51.58;101139.19;6098990;23;20021;-76
2022/04/13 10:33:05;;;;;;;6.88;6.38;;;;;;;20.18;52.58;101127.59;6117450;23;20116;-76
2022/04/13 10:35:34;;;;;;;5.90;5.50;;;;;;;20.98;50.51;101137.47;6112473;23;20041;-76
2022/04/13 10:38:03;;;;;;;6.65;6.05;;;;;;;20.96;48.79;101139.44;6109979;23;20059;-77
2022/04/13 10:40:31;;;;;;;10.65;5.90;;;;;;;21.37;49.31;101137.53;6113086;23;20021;-77
2022/04/13 10:43:03;;;;;;;6.93;6.38;;;;;;;21.03;48.73;101147.75;6112128;23;20033;-77
2022/04/13 10:45:31;;;;;;;5.97;5.68;;;;;;;20.55;50.48;101146.56;6103917;23;20601;-76
2022/04/13 10:48:05;;;;;;;6.18;5.78;;;;;;;20.57;49.13;101141.94;6110353;23;20115;-76
2022/04/13 10:50:54;;;;;;;6.78;6.18;;;;;;;21.17;48.81;101150.03;6096209;23;20109;-76
2022/04/13 10:53:25;;;;;;;7.47;7.07;;;;;;;20.96;49.75;101147.44;6104549;23;20033;-77
2022/04/13 10:55:58;;;;;;;5.90;5.60;;;;;;;21.24;47.26;101100.41;6104708;23;20576;-77
2022/04/13 10:58:45;;;;;;;7.07;6.72;;;;;;;19.99;50.51;101069.72;6108097;23;20005;-77
2022/04/13 11:01:15;;;;;;;6.68;6.28;;;;;;;20.48;50.34;101129.41;6085364;23;20035;-75
2022/04/13 11:03:42;;;;;;;6.90;6.50;;;;;;;20.19;48.72;101153.28;6110890;23;20026;-76
2022/04/13 11:06:11;;;;;;;6.07;5.68;;;;;;;20.28;49.09;101105.31;6103568;23;20030;-75
2022/04/13 11:08:57;;;;;;;5.82;5.53;;;;;;;19.97;51.17;101138.28;6113177;23;20084;-75
2022/04/13 11:11:27;;;;;;;6.65;6.35;;;;;;;20.32;50.24;101120.06;6102346;23;20031;-75
2022/04/13 11:13:54;;;;;;;6.00;5.60;;;;;;;20.37;49.14;101097.53;6100159;23;20714;-74
2022/04/13 11:16:25;;;;;;;6.85;6.40;;;;;;;19.84;49.40;101027.41;6115995;23;20067;-75
2022/04/13 11:19:04;;;;;;;6.07;5.78;;;;;;;20.34;50.77;101162.59;6106077;23;20013;-74
2022/04/13 11:21:54;;;;;;;6.10;5.80;;;;;;;20.67;51.47;101163.38;6108428;23;20170;-75
2022/04/13 11:24:46;;;;;;;7.55;7.15;;;;;;;19.64;52.01;101084.19;6103069;23;20019;-72
2022/04/13 11:27:13;;;;;;;7.15;6.75;;;;;;;19.53;53.55;101147.16;6101509;23;20035;-75
2022/04/13 11:29:56;;;;;;;5.47;5.28;;;;;;;19.22;52.55;101014.94;6107458;23;20067;-73